sensor_id;sensor_type;location;lat;lon;timestamp;temperature;humidity
23715;DHT22;12036;50.858;4.472;2024-03-07T00:00:10;3.90;99.90
23715;DHT22;12036;50.858;4.472;2024-03-07T00:02:48;3.90;99.90
23715;DHT22;12036;50.858;4.472;2024-03-07T00:05:15;3.90;99.90
23715;DHT22;12036;50.858;4.472;2024-03-07T00:07:41;3.80;99.90
23715;DHT22;12036;50.858;4.472;2024-03-07T00:10:07;3.80;99.90
23715;DHT22;12036;50.858;4.472;2024-03-07T00:12:37;3.70;99.90
23715;DHT22;12036;50.858;4.472;2024-03-07T00:15:07;3.70;99.90
23715;DHT22;12036;50.858;4.472;2024-03-07T00:17:34;3.70;99.90
23715;DHT22;12036;50.858;4.472;2024-03-07T00:20:00;3.70;99.90
23715;DHT22;12036;50.858;4.472;2024-03-07T00:22:26;3.60;99.90
23715;DHT22;12036;50.858;4.472;2024-03-07T00:24:55;3.60;99.90
23715;DHT22;12036;50.858;4.472;2024-03-07T00:27:21;3.60;99.90
23715;DHT22;12036;50.858;4.472;2024-03-07T00:29:50;3.60;99.90
23715;DHT22;12036;50.858;4.472;2024-03-07T00:32:23;3.60;99.90
23715;DHT22;12036;50.858;4.472;2024-03-07T00:34:49;3.50;99.90
23715;DHT22;12036;50.858;4.472;2024-03-07T00:37:16;3.50;99.90
23715;DHT22;12036;50.858;4.472;2024-03-07T00:39:42;3.50;99.90
23715;DHT22;12036;50.858;4.472;2024-03-07T00:42:08;3.50;99.90
23715;DHT22;12036;50.858;4.472;2024-03-07T00:44:34;3.50;99.90
23715;DHT22;12036;50.858;4.472;2024-03-07T00:47:03;3.40;99.90
23715;DHT22;12036;50.858;4.472;2024-03-07T00:49:30;3.40;99.90
23715;DHT22;12036;50.858;4.472;2024-03-07T00:51:57;3.40;99.90
23715;DHT22;12036;50.858;4.472;2024-03-07T00:54:23;3.40;99.90
23715;DHT22;12036;50.858;4.472;2024-03-07T00:56:49;3.40;99.90
23715;DHT22;12036;50.858;4.472;2024-03-07T00:59:17;3.30;99.90
23715;DHT22;12036;50.858;4.472;2024-03-07T01:01:43;3.40;99.90
23715;DHT22;12036;50.858;4.472;2024-03-07T01:04:09;3.40;99.90
23715;DHT22;12036;50.858;4.472;2024-03-07T01:06:35;3.40;99.90
23715;DHT22;12036;50.858;4.472;2024-03-07T01:09:06;3.40;99.90
23715;DHT22;12036;50.858;4.472;2024-03-07T01:11:39;3.30;99.90
23715;DHT22;12036;50.858;4.472;2024-03-07T01:14:05;3.30;99.90
23715;DHT22;12036;50.858;4.472;2024-03-07T01:16:31;3.30;99.90
23715;DHT22;12036;50.858;4.472;2024-03-07T01:18:56;3.30;99.90
23715;DHT22;12036;50.858;4.472;2024-03-07T01:21:22;3.30;99.90
23715;DHT22;12036;50.858;4.472;2024-03-07T01:23:49;3.20;99.90
23715;DHT22;12036;50.858;4.472;2024-03-07T01:26:15;3.20;99.90
23715;DHT22;12036;50.858;4.472;2024-03-07T01:28:40;3.20;99.90
23715;DHT22;12036;50.858;4.472;2024-03-07T01:31:06;3.20;99.90
23715;DHT22;12036;50.858;4.472;2024-03-07T01:33:33;3.10;99.90
23715;DHT22;12036;50.858;4.472;2024-03-07T01:35:59;3.20;99.90
23715;DHT22;12036;50.858;4.472;2024-03-07T01:38:24;3.10;99.90
23715;DHT22;12036;50.858;4.472;2024-03-07T01:40:50;3.10;99.90
23715;DHT22;12036;50.858;4.472;2024-03-07T01:43:16;3.10;99.90
23715;DHT22;12036;50.858;4.472;2024-03-07T01:45:42;3.10;99.90
23715;DHT22;12036;50.858;4.472;2024-03-07T01:48:11;3.10;99.90
23715;DHT22;12036;50.858;4.472;2024-03-07T01:50:39;3.10;99.90
23715;DHT22;12036;50.858;4.472;2024-03-07T01:53:06;3.10;99.90
23715;DHT22;12036;50.858;4.472;2024-03-07T01:55:35;3.10;99.90
23715;DHT22;12036;50.858;4.472;2024-03-07T01:58:02;3.10;99.90
23715;DHT22;12036;50.858;4.472;2024-03-07T02:00:30;3.00;99.90
23715;DHT22;12036;50.858;4.472;2024-03-07T02:02:56;3.00;99.90
23715;DHT22;12036;50.858;4.472;2024-03-07T02:05:22;3.00;99.90
23715;DHT22;12036;50.858;4.472;2024-03-07T02:07:49;2.90;99.90
23715;DHT22;12036;50.858;4.472;2024-03-07T02:10:15;3.00;99.90
23715;DHT22;12036;50.858;4.472;2024-03-07T02:12:42;3.00;99.90
23715;DHT22;12036;50.858;4.472;2024-03-07T02:15:08;2.90;99.90
23715;DHT22;12036;50.858;4.472;2024-03-07T02:17:35;2.90;99.90
23715;DHT22;12036;50.858;4.472;2024-03-07T02:20:01;2.90;99.90
23715;DHT22;12036;50.858;4.472;2024-03-07T02:22:26;2.80;99.90
23715;DHT22;12036;50.858;4.472;2024-03-07T02:24:52;2.80;99.90
23715;DHT22;12036;50.858;4.472;2024-03-07T02:27:18;2.80;99.90
23715;DHT22;12036;50.858;4.472;2024-03-07T02:29:44;2.70;99.90
23715;DHT22;12036;50.858;4.472;2024-03-07T02:32:09;2.70;99.90
23715;DHT22;12036;50.858;4.472;2024-03-07T02:34:35;2.70;99.90
23715;DHT22;12036;50.858;4.472;2024-03-07T02:37:01;2.70;99.90
23715;DHT22;12036;50.858;4.472;2024-03-07T02:39:28;2.70;99.90
23715;DHT22;12036;50.858;4.472;2024-03-07T02:41:53;2.70;99.90
23715;DHT22;12036;50.858;4.472;2024-03-07T02:44:19;2.70;99.90
23715;DHT22;12036;50.858;4.472;2024-03-07T02:46:45;2.70;99.90
23715;DHT22;12036;50.858;4.472;2024-03-07T02:49:15;2.70;99.90
23715;DHT22;12036;50.858;4.472;2024-03-07T02:51:41;2.70;99.90
23715;DHT22;12036;50.858;4.472;2024-03-07T02:54:08;2.70;99.90
23715;DHT22;12036;50.858;4.472;2024-03-07T02:56:33;2.70;99.90
23715;DHT22;12036;50.858;4.472;2024-03-07T02:58:59;2.70;99.90
23715;DHT22;12036;50.858;4.472;2024-03-07T03:01:25;2.60;99.90
23715;DHT22;12036;50.858;4.472;2024-03-07T03:03:51;2.60;99.90
23715;DHT22;12036;50.858;4.472;2024-03-07T03:06:17;2.60;99.90
23715;DHT22;12036;50.858;4.472;2024-03-07T03:08:46;2.60;99.90
23715;DHT22;12036;50.858;4.472;2024-03-07T03:11:12;2.60;99.90
23715;DHT22;12036;50.858;4.472;2024-03-07T03:13:39;2.60;99.90
23715;DHT22;12036;50.858;4.472;2024-03-07T03:16:05;2.60;99.90
23715;DHT22;12036;50.858;4.472;2024-03-07T03:18:35;2.60;99.90
23715;DHT22;12036;50.858;4.472;2024-03-07T03:21:01;2.50;99.90
23715;DHT22;12036;50.858;4.472;2024-03-07T03:23:28;2.50;99.90
23715;DHT22;12036;50.858;4.472;2024-03-07T03:25:54;2.50;99.90
23715;DHT22;12036;50.858;4.472;2024-03-07T03:28:21;2.50;99.90
23715;DHT22;12036;50.858;4.472;2024-03-07T03:30:48;2.50;99.90
23715;DHT22;12036;50.858;4.472;2024-03-07T03:33:14;2.50;99.90
23715;DHT22;12036;50.858;4.472;2024-03-07T03:35:40;2.50;99.90
23715;DHT22;12036;50.858;4.472;2024-03-07T03:38:07;2.40;99.90
23715;DHT22;12036;50.858;4.472;2024-03-07T03:40:33;2.50;99.90
23715;DHT22;12036;50.858;4.472;2024-03-07T03:42:59;2.50;99.90
23715;DHT22;12036;50.858;4.472;2024-03-07T03:45:26;2.40;99.90
23715;DHT22;12036;50.858;4.472;2024-03-07T03:47:52;2.40;99.90
23715;DHT22;12036;50.858;4.472;2024-03-07T03:50:18;2.40;99.90
23715;DHT22;12036;50.858;4.472;2024-03-07T03:52:44;2.40;99.90
23715;DHT22;12036;50.858;4.472;2024-03-07T03:55:10;2.40;99.90
23715;DHT22;12036;50.858;4.472;2024-03-07T03:57:41;2.40;99.90
23715;DHT22;12036;50.858;4.472;2024-03-07T04:00:08;2.40;99.90
23715;DHT22;12036;50.858;4.472;2024-03-07T04:02:45;2.40;99.90
23715;DHT22;12036;50.858;4.472;2024-03-07T04:05:16;2.40;99.90
23715;DHT22;12036;50.858;4.472;2024-03-07T04:07:42;2.40;99.90
23715;DHT22;12036;50.858;4.472;2024-03-07T04:10:10;2.40;99.90
23715;DHT22;12036;50.858;4.472;2024-03-07T04:12:38;2.30;99.90
23715;DHT22;12036;50.858;4.472;2024-03-07T04:15:06;2.30;99.90
23715;DHT22;12036;50.858;4.472;2024-03-07T04:17:33;2.30;99.90
23715;DHT22;12036;50.858;4.472;2024-03-07T04:20:00;2.30;99.90
23715;DHT22;12036;50.858;4.472;2024-03-07T04:22:26;2.30;99.90
23715;DHT22;12036;50.858;4.472;2024-03-07T04:24:52;2.20;99.90
23715;DHT22;12036;50.858;4.472;2024-03-07T04:27:20;2.30;99.90
23715;DHT22;12036;50.858;4.472;2024-03-07T04:29:47;2.30;99.90
23715;DHT22;12036;50.858;4.472;2024-03-07T04:32:13;2.30;99.90
23715;DHT22;12036;50.858;4.472;2024-03-07T04:34:39;2.30;99.90
23715;DHT22;12036;50.858;4.472;2024-03-07T04:37:05;2.30;99.90
23715;DHT22;12036;50.858;4.472;2024-03-07T04:39:31;2.30;99.90
23715;DHT22;12036;50.858;4.472;2024-03-07T04:42:00;2.30;99.90
23715;DHT22;12036;50.858;4.472;2024-03-07T04:44:27;2.30;99.90
23715;DHT22;12036;50.858;4.472;2024-03-07T04:46:53;2.30;99.90
23715;DHT22;12036;50.858;4.472;2024-03-07T04:49:27;2.30;99.90
23715;DHT22;12036;50.858;4.472;2024-03-07T04:51:54;2.30;99.90
23715;DHT22;12036;50.858;4.472;2024-03-07T04:54:21;2.30;99.90
23715;DHT22;12036;50.858;4.472;2024-03-07T04:56:47;2.30;99.90
23715;DHT22;12036;50.858;4.472;2024-03-07T04:59:13;2.40;99.90
23715;DHT22;12036;50.858;4.472;2024-03-07T05:01:39;2.40;99.90
23715;DHT22;12036;50.858;4.472;2024-03-07T05:04:06;2.40;99.90
23715;DHT22;12036;50.858;4.472;2024-03-07T05:06:32;2.50;99.90
23715;DHT22;12036;50.858;4.472;2024-03-07T05:09:05;2.60;99.90
23715;DHT22;12036;50.858;4.472;2024-03-07T05:11:33;2.70;99.90
23715;DHT22;12036;50.858;4.472;2024-03-07T05:14:00;2.90;99.90
23715;DHT22;12036;50.858;4.472;2024-03-07T05:16:30;3.10;99.90
23715;DHT22;12036;50.858;4.472;2024-03-07T05:18:59;3.20;99.90
23715;DHT22;12036;50.858;4.472;2024-03-07T05:21:26;3.40;99.90
23715;DHT22;12036;50.858;4.472;2024-03-07T05:23:58;3.50;99.90
23715;DHT22;12036;50.858;4.472;2024-03-07T05:26:24;3.70;99.90
23715;DHT22;12036;50.858;4.472;2024-03-07T05:28:50;3.90;99.90
23715;DHT22;12036;50.858;4.472;2024-03-07T05:31:17;4.00;99.90
23715;DHT22;12036;50.858;4.472;2024-03-07T05:33:44;4.20;99.90
23715;DHT22;12036;50.858;4.472;2024-03-07T05:36:09;4.30;99.90
23715;DHT22;12036;50.858;4.472;2024-03-07T05:38:44;4.40;99.90
23715;DHT22;12036;50.858;4.472;2024-03-07T05:41:13;4.60;99.90
23715;DHT22;12036;50.858;4.472;2024-03-07T05:43:39;4.70;99.90
23715;DHT22;12036;50.858;4.472;2024-03-07T05:46:05;4.70;99.90
23715;DHT22;12036;50.858;4.472;2024-03-07T05:48:33;4.80;99.90
23715;DHT22;12036;50.858;4.472;2024-03-07T05:51:01;4.90;99.90
23715;DHT22;12036;50.858;4.472;2024-03-07T05:53:27;4.90;99.90
23715;DHT22;12036;50.858;4.472;2024-03-07T05:55:52;5.00;99.90
23715;DHT22;12036;50.858;4.472;2024-03-07T05:58:18;5.10;99.90
23715;DHT22;12036;50.858;4.472;2024-03-07T06:00:47;5.10;99.90
23715;DHT22;12036;50.858;4.472;2024-03-07T06:03:21;5.20;99.90
23715;DHT22;12036;50.858;4.472;2024-03-07T06:05:47;5.20;99.90
23715;DHT22;12036;50.858;4.472;2024-03-07T06:08:17;5.20;99.90
23715;DHT22;12036;50.858;4.472;2024-03-07T06:10:44;5.20;99.90
23715;DHT22;12036;50.858;4.472;2024-03-07T06:13:14;5.20;99.90
23715;DHT22;12036;50.858;4.472;2024-03-07T06:15:43;5.30;99.90
23715;DHT22;12036;50.858;4.472;2024-03-07T06:18:09;5.20;99.90
23715;DHT22;12036;50.858;4.472;2024-03-07T06:20:36;5.20;99.90
23715;DHT22;12036;50.858;4.472;2024-03-07T06:23:03;5.30;99.90
23715;DHT22;12036;50.858;4.472;2024-03-07T06:25:32;5.40;99.90
23715;DHT22;12036;50.858;4.472;2024-03-07T06:28:24;5.30;99.90
23715;DHT22;12036;50.858;4.472;2024-03-07T06:30:49;5.40;99.90
23715;DHT22;12036;50.858;4.472;2024-03-07T06:33:15;5.40;99.90
23715;DHT22;12036;50.858;4.472;2024-03-07T06:35:44;5.40;99.90
23715;DHT22;12036;50.858;4.472;2024-03-07T06:38:10;5.40;99.90
23715;DHT22;12036;50.858;4.472;2024-03-07T06:40:36;5.40;99.90
23715;DHT22;12036;50.858;4.472;2024-03-07T06:43:03;5.40;99.90
23715;DHT22;12036;50.858;4.472;2024-03-07T06:45:29;5.50;99.90
23715;DHT22;12036;50.858;4.472;2024-03-07T06:47:55;5.50;99.90
23715;DHT22;12036;50.858;4.472;2024-03-07T06:50:22;5.50;99.90
23715;DHT22;12036;50.858;4.472;2024-03-07T06:52:48;5.40;99.90
23715;DHT22;12036;50.858;4.472;2024-03-07T06:55:18;5.50;99.90
23715;DHT22;12036;50.858;4.472;2024-03-07T06:57:47;5.50;99.90
23715;DHT22;12036;50.858;4.472;2024-03-07T07:00:15;5.50;99.90
23715;DHT22;12036;50.858;4.472;2024-03-07T07:02:47;5.50;99.90
23715;DHT22;12036;50.858;4.472;2024-03-07T07:05:14;5.60;99.90
23715;DHT22;12036;50.858;4.472;2024-03-07T07:07:44;5.60;99.90
23715;DHT22;12036;50.858;4.472;2024-03-07T07:10:11;5.70;99.90
23715;DHT22;12036;50.858;4.472;2024-03-07T07:12:49;5.70;99.90
23715;DHT22;12036;50.858;4.472;2024-03-07T07:15:17;5.80;99.90
23715;DHT22;12036;50.858;4.472;2024-03-07T07:17:44;5.80;99.90
23715;DHT22;12036;50.858;4.472;2024-03-07T07:20:17;5.80;99.90
23715;DHT22;12036;50.858;4.472;2024-03-07T07:22:44;6.10;99.90
23715;DHT22;12036;50.858;4.472;2024-03-07T07:25:12;6.20;99.90
23715;DHT22;12036;50.858;4.472;2024-03-07T07:27:51;6.10;99.90
23715;DHT22;12036;50.858;4.472;2024-03-07T07:30:22;6.10;99.90
23715;DHT22;12036;50.858;4.472;2024-03-07T07:32:50;5.90;99.90
23715;DHT22;12036;50.858;4.472;2024-03-07T07:35:16;5.80;99.90
23715;DHT22;12036;50.858;4.472;2024-03-07T07:37:44;5.90;99.90
23715;DHT22;12036;50.858;4.472;2024-03-07T07:40:12;5.90;99.90
23715;DHT22;12036;50.858;4.472;2024-03-07T07:42:45;5.90;99.90
23715;DHT22;12036;50.858;4.472;2024-03-07T07:45:13;5.90;99.90
23715;DHT22;12036;50.858;4.472;2024-03-07T07:47:43;6.10;99.90
23715;DHT22;12036;50.858;4.472;2024-03-07T07:50:10;6.10;99.90
23715;DHT22;12036;50.858;4.472;2024-03-07T07:52:58;6.10;99.90
23715;DHT22;12036;50.858;4.472;2024-03-07T07:55:28;6.00;99.90
23715;DHT22;12036;50.858;4.472;2024-03-07T07:57:58;6.00;99.90
23715;DHT22;12036;50.858;4.472;2024-03-07T08:00:26;6.10;99.90
23715;DHT22;12036;50.858;4.472;2024-03-07T08:03:01;6.10;99.90
23715;DHT22;12036;50.858;4.472;2024-03-07T08:05:31;6.00;99.90
23715;DHT22;12036;50.858;4.472;2024-03-07T08:08:00;6.20;99.90
23715;DHT22;12036;50.858;4.472;2024-03-07T08:10:28;6.20;99.90
23715;DHT22;12036;50.858;4.472;2024-03-07T08:12:55;6.20;99.90
23715;DHT22;12036;50.858;4.472;2024-03-07T08:15:21;6.30;99.90
23715;DHT22;12036;50.858;4.472;2024-03-07T08:17:47;6.30;99.90
23715;DHT22;12036;50.858;4.472;2024-03-07T08:20:23;6.40;99.90
23715;DHT22;12036;50.858;4.472;2024-03-07T08:22:51;6.50;99.90
23715;DHT22;12036;50.858;4.472;2024-03-07T08:25:19;6.60;99.90
23715;DHT22;12036;50.858;4.472;2024-03-07T08:27:47;6.60;99.90
23715;DHT22;12036;50.858;4.472;2024-03-07T08:30:14;6.70;99.90
23715;DHT22;12036;50.858;4.472;2024-03-07T08:32:41;6.70;99.90
23715;DHT22;12036;50.858;4.472;2024-03-07T08:35:08;6.80;99.90
23715;DHT22;12036;50.858;4.472;2024-03-07T08:37:41;6.90;99.90
23715;DHT22;12036;50.858;4.472;2024-03-07T08:40:08;6.90;99.90
23715;DHT22;12036;50.858;4.472;2024-03-07T08:42:48;6.90;99.90
23715;DHT22;12036;50.858;4.472;2024-03-07T08:45:14;6.90;99.90
23715;DHT22;12036;50.858;4.472;2024-03-07T08:47:45;7.00;99.90
23715;DHT22;12036;50.858;4.472;2024-03-07T08:50:12;7.00;99.90
23715;DHT22;12036;50.858;4.472;2024-03-07T08:52:39;7.00;99.90
23715;DHT22;12036;50.858;4.472;2024-03-07T08:55:06;7.00;99.90
23715;DHT22;12036;50.858;4.472;2024-03-07T08:57:35;7.00;99.90
23715;DHT22;12036;50.858;4.472;2024-03-07T09:00:07;7.10;99.90
23715;DHT22;12036;50.858;4.472;2024-03-07T09:02:59;7.10;99.90
23715;DHT22;12036;50.858;4.472;2024-03-07T09:05:25;7.10;99.90
23715;DHT22;12036;50.858;4.472;2024-03-07T09:07:53;7.30;99.90
23715;DHT22;12036;50.858;4.472;2024-03-07T09:10:19;7.20;99.90
23715;DHT22;12036;50.858;4.472;2024-03-07T09:12:46;7.30;99.90
23715;DHT22;12036;50.858;4.472;2024-03-07T09:15:15;7.30;99.90
23715;DHT22;12036;50.858;4.472;2024-03-07T09:17:42;7.40;99.90
23715;DHT22;12036;50.858;4.472;2024-03-07T09:20:09;7.60;99.90
23715;DHT22;12036;50.858;4.472;2024-03-07T09:22:40;7.70;99.90
23715;DHT22;12036;50.858;4.472;2024-03-07T09:25:07;8.10;99.90
23715;DHT22;12036;50.858;4.472;2024-03-07T09:27:33;8.20;99.90
23715;DHT22;12036;50.858;4.472;2024-03-07T09:29:59;8.50;99.90
23715;DHT22;12036;50.858;4.472;2024-03-07T09:32:24;8.50;99.90
23715;DHT22;12036;50.858;4.472;2024-03-07T09:34:50;8.50;99.90
23715;DHT22;12036;50.858;4.472;2024-03-07T09:37:16;8.60;99.90
23715;DHT22;12036;50.858;4.472;2024-03-07T09:39:43;8.70;99.90
23715;DHT22;12036;50.858;4.472;2024-03-07T09:42:09;8.80;99.90
23715;DHT22;12036;50.858;4.472;2024-03-07T09:44:42;8.80;99.90
23715;DHT22;12036;50.858;4.472;2024-03-07T09:47:09;8.80;99.90
23715;DHT22;12036;50.858;4.472;2024-03-07T09:49:36;8.80;99.90
23715;DHT22;12036;50.858;4.472;2024-03-07T09:52:06;8.80;99.90
23715;DHT22;12036;50.858;4.472;2024-03-07T09:54:34;8.90;99.90
23715;DHT22;12036;50.858;4.472;2024-03-07T09:57:02;8.80;99.90
23715;DHT22;12036;50.858;4.472;2024-03-07T09:59:28;9.00;99.90
23715;DHT22;12036;50.858;4.472;2024-03-07T10:01:57;9.30;99.90
23715;DHT22;12036;50.858;4.472;2024-03-07T10:04:31;9.60;99.90
23715;DHT22;12036;50.858;4.472;2024-03-07T10:07:02;10.00;99.90
23715;DHT22;12036;50.858;4.472;2024-03-07T10:09:29;10.10;99.90
23715;DHT22;12036;50.858;4.472;2024-03-07T10:11:58;10.10;99.90
23715;DHT22;12036;50.858;4.472;2024-03-07T10:14:24;10.00;99.90
23715;DHT22;12036;50.858;4.472;2024-03-07T10:16:50;9.90;99.90
23715;DHT22;12036;50.858;4.472;2024-03-07T10:19:19;9.80;99.90
23715;DHT22;12036;50.858;4.472;2024-03-07T10:21:44;9.80;99.90
23715;DHT22;12036;50.858;4.472;2024-03-07T10:24:10;9.70;99.90
23715;DHT22;12036;50.858;4.472;2024-03-07T10:26:40;9.70;99.90
23715;DHT22;12036;50.858;4.472;2024-03-07T10:29:06;9.90;99.90
23715;DHT22;12036;50.858;4.472;2024-03-07T10:31:34;10.00;99.90
23715;DHT22;12036;50.858;4.472;2024-03-07T10:34:03;10.20;99.90
23715;DHT22;12036;50.858;4.472;2024-03-07T10:36:30;10.30;99.90
23715;DHT22;12036;50.858;4.472;2024-03-07T10:38:59;10.40;99.90
23715;DHT22;12036;50.858;4.472;2024-03-07T10:41:28;10.60;99.90
23715;DHT22;12036;50.858;4.472;2024-03-07T10:43:57;10.60;99.90
23715;DHT22;12036;50.858;4.472;2024-03-07T10:46:26;10.50;99.90
23715;DHT22;12036;50.858;4.472;2024-03-07T10:48:55;10.60;99.90
23715;DHT22;12036;50.858;4.472;2024-03-07T10:51:30;10.80;99.90
23715;DHT22;12036;50.858;4.472;2024-03-07T10:54:20;10.80;99.90
23715;DHT22;12036;50.858;4.472;2024-03-07T10:59:25;10.80;99.90
23715;DHT22;12036;50.858;4.472;2024-03-07T11:01:59;10.90;99.90
23715;DHT22;12036;50.858;4.472;2024-03-07T11:04:30;11.10;99.90
23715;DHT22;12036;50.858;4.472;2024-03-07T11:06:56;11.30;99.90
23715;DHT22;12036;50.858;4.472;2024-03-07T11:09:25;11.10;99.90
23715;DHT22;12036;50.858;4.472;2024-03-07T11:11:55;11.20;99.90
23715;DHT22;12036;50.858;4.472;2024-03-07T11:14:22;11.40;99.90
23715;DHT22;12036;50.858;4.472;2024-03-07T11:16:49;11.50;99.90
23715;DHT22;12036;50.858;4.472;2024-03-07T11:19:24;11.60;99.90
23715;DHT22;12036;50.858;4.472;2024-03-07T11:21:52;11.50;99.90
23715;DHT22;12036;50.858;4.472;2024-03-07T11:24:28;11.70;99.90
23715;DHT22;12036;50.858;4.472;2024-03-07T11:26:56;12.00;99.90
23715;DHT22;12036;50.858;4.472;2024-03-07T11:29:39;12.40;99.90
23715;DHT22;12036;50.858;4.472;2024-03-07T11:32:15;13.10;99.90
23715;DHT22;12036;50.858;4.472;2024-03-07T11:34:43;13.50;99.90
23715;DHT22;12036;50.858;4.472;2024-03-07T11:37:17;13.50;99.90
23715;DHT22;12036;50.858;4.472;2024-03-07T11:42:29;13.60;99.90
23715;DHT22;12036;50.858;4.472;2024-03-07T11:44:56;13.40;99.50
23715;DHT22;12036;50.858;4.472;2024-03-07T11:47:23;13.30;99.90
23715;DHT22;12036;50.858;4.472;2024-03-07T11:49:50;13.50;99.90
23715;DHT22;12036;50.858;4.472;2024-03-07T11:52:18;14.10;98.20
23715;DHT22;12036;50.858;4.472;2024-03-07T11:54:44;14.20;98.50
23715;DHT22;12036;50.858;4.472;2024-03-07T11:57:19;14.40;97.70
23715;DHT22;12036;50.858;4.472;2024-03-07T11:59:45;14.40;97.30
23715;DHT22;12036;50.858;4.472;2024-03-07T12:02:15;14.50;97.60
23715;DHT22;12036;50.858;4.472;2024-03-07T12:04:41;14.50;96.70
23715;DHT22;12036;50.858;4.472;2024-03-07T12:07:08;14.60;95.90
23715;DHT22;12036;50.858;4.472;2024-03-07T12:09:37;14.50;95.70
23715;DHT22;12036;50.858;4.472;2024-03-07T12:12:04;14.40;95.90
23715;DHT22;12036;50.858;4.472;2024-03-07T12:14:30;14.20;95.80
23715;DHT22;12036;50.858;4.472;2024-03-07T12:16:56;13.80;96.20
23715;DHT22;12036;50.858;4.472;2024-03-07T12:19:23;13.60;97.00
23715;DHT22;12036;50.858;4.472;2024-03-07T12:21:49;13.50;97.40
23715;DHT22;12036;50.858;4.472;2024-03-07T12:24:15;13.60;97.30
23715;DHT22;12036;50.858;4.472;2024-03-07T12:26:41;13.50;96.30
23715;DHT22;12036;50.858;4.472;2024-03-07T12:29:12;13.30;96.10
23715;DHT22;12036;50.858;4.472;2024-03-07T12:31:42;13.00;96.40
23715;DHT22;12036;50.858;4.472;2024-03-07T12:34:10;12.70;97.00
23715;DHT22;12036;50.858;4.472;2024-03-07T12:36:37;12.70;97.30
23715;DHT22;12036;50.858;4.472;2024-03-07T12:39:25;12.70;97.40
23715;DHT22;12036;50.858;4.472;2024-03-07T12:41:57;12.50;98.00
23715;DHT22;12036;50.858;4.472;2024-03-07T12:44:23;12.30;98.30
23715;DHT22;12036;50.858;4.472;2024-03-07T12:46:51;12.20;98.70
23715;DHT22;12036;50.858;4.472;2024-03-07T12:49:24;12.40;98.60
23715;DHT22;12036;50.858;4.472;2024-03-07T12:51:53;12.50;98.20
23715;DHT22;12036;50.858;4.472;2024-03-07T12:54:19;12.60;97.80
23715;DHT22;12036;50.858;4.472;2024-03-07T12:56:45;12.60;98.10
23715;DHT22;12036;50.858;4.472;2024-03-07T12:59:11;12.60;98.20
23715;DHT22;12036;50.858;4.472;2024-03-07T13:01:36;12.60;98.30
23715;DHT22;12036;50.858;4.472;2024-03-07T13:04:06;12.50;98.20
23715;DHT22;12036;50.858;4.472;2024-03-07T13:06:35;12.70;97.60
23715;DHT22;12036;50.858;4.472;2024-03-07T13:09:01;12.70;97.50
23715;DHT22;12036;50.858;4.472;2024-03-07T13:11:28;12.70;97.50
23715;DHT22;12036;50.858;4.472;2024-03-07T13:13:55;12.60;97.20
23715;DHT22;12036;50.858;4.472;2024-03-07T13:16:22;12.40;97.60
23715;DHT22;12036;50.858;4.472;2024-03-07T13:18:56;12.30;98.00
23715;DHT22;12036;50.858;4.472;2024-03-07T13:21:21;12.30;98.20
23715;DHT22;12036;50.858;4.472;2024-03-07T13:23:47;12.40;98.30
23715;DHT22;12036;50.858;4.472;2024-03-07T13:26:17;12.30;98.00
23715;DHT22;12036;50.858;4.472;2024-03-07T13:28:49;12.30;97.90
23715;DHT22;12036;50.858;4.472;2024-03-07T13:31:15;12.50;96.90
23715;DHT22;12036;50.858;4.472;2024-03-07T13:33:43;12.60;96.40
23715;DHT22;12036;50.858;4.472;2024-03-07T13:36:09;12.70;95.90
23715;DHT22;12036;50.858;4.472;2024-03-07T13:38:35;12.70;95.60
23715;DHT22;12036;50.858;4.472;2024-03-07T13:41:02;12.60;96.00
23715;DHT22;12036;50.858;4.472;2024-03-07T13:43:30;12.60;95.50
23715;DHT22;12036;50.858;4.472;2024-03-07T13:45:55;12.60;95.00
23715;DHT22;12036;50.858;4.472;2024-03-07T13:48:22;12.50;95.40
23715;DHT22;12036;50.858;4.472;2024-03-07T13:50:48;12.40;95.50
23715;DHT22;12036;50.858;4.472;2024-03-07T13:53:20;12.10;95.70
23715;DHT22;12036;50.858;4.472;2024-03-07T14:16:12;12.10;95.10
23715;DHT22;12036;50.858;4.472;2024-03-07T14:27:41;12.00;95.20
23715;DHT22;12036;50.858;4.472;2024-03-07T14:30:27;12.10;94.80
23715;DHT22;12036;50.858;4.472;2024-03-07T14:33:01;12.20;94.70
23715;DHT22;12036;50.858;4.472;2024-03-07T14:36:00;12.20;94.80
23715;DHT22;12036;50.858;4.472;2024-03-07T14:38:49;12.30;95.10
23715;DHT22;12036;50.858;4.472;2024-03-07T14:41:20;12.40;94.60
23715;DHT22;12036;50.858;4.472;2024-03-07T14:43:49;12.50;94.30
23715;DHT22;12036;50.858;4.472;2024-03-07T14:46:16;12.40;94.00
23715;DHT22;12036;50.858;4.472;2024-03-07T14:48:43;12.20;93.30
23715;DHT22;12036;50.858;4.472;2024-03-07T14:51:11;12.30;93.60
23715;DHT22;12036;50.858;4.472;2024-03-07T14:53:39;12.20;94.00
23715;DHT22;12036;50.858;4.472;2024-03-07T14:56:07;12.20;93.90
23715;DHT22;12036;50.858;4.472;2024-03-07T14:58:34;12.10;94.10
23715;DHT22;12036;50.858;4.472;2024-03-07T15:01:01;12.00;94.70
23715;DHT22;12036;50.858;4.472;2024-03-07T15:03:27;12.00;94.90
23715;DHT22;12036;50.858;4.472;2024-03-07T15:05:56;12.00;94.40
23715;DHT22;12036;50.858;4.472;2024-03-07T15:08:22;12.10;94.30
23715;DHT22;12036;50.858;4.472;2024-03-07T15:10:54;12.10;94.10
23715;DHT22;12036;50.858;4.472;2024-03-07T15:13:21;12.20;93.50
23715;DHT22;12036;50.858;4.472;2024-03-07T15:15:48;12.10;93.90
23715;DHT22;12036;50.858;4.472;2024-03-07T15:18:14;12.00;93.90
23715;DHT22;12036;50.858;4.472;2024-03-07T15:20:39;12.00;93.60
23715;DHT22;12036;50.858;4.472;2024-03-07T15:23:07;12.00;93.50
23715;DHT22;12036;50.858;4.472;2024-03-07T15:25:32;12.00;93.00
23715;DHT22;12036;50.858;4.472;2024-03-07T15:27:59;11.90;92.90
23715;DHT22;12036;50.858;4.472;2024-03-07T15:30:26;11.90;93.10
23715;DHT22;12036;50.858;4.472;2024-03-07T15:33:00;11.90;93.50
23715;DHT22;12036;50.858;4.472;2024-03-07T15:35:27;11.70;93.30
23715;DHT22;12036;50.858;4.472;2024-03-07T15:37:53;11.80;93.40
23715;DHT22;12036;50.858;4.472;2024-03-07T15:40:20;11.70;93.40
23715;DHT22;12036;50.858;4.472;2024-03-07T15:42:54;11.60;93.80
23715;DHT22;12036;50.858;4.472;2024-03-07T15:45:23;11.60;93.50
23715;DHT22;12036;50.858;4.472;2024-03-07T15:47:51;11.50;93.50
23715;DHT22;12036;50.858;4.472;2024-03-07T15:50:17;11.50;93.50
23715;DHT22;12036;50.858;4.472;2024-03-07T15:52:45;11.30;94.00
23715;DHT22;12036;50.858;4.472;2024-03-07T15:55:12;11.40;94.00
23715;DHT22;12036;50.858;4.472;2024-03-07T15:57:51;11.50;93.40
23715;DHT22;12036;50.858;4.472;2024-03-07T16:00:24;11.50;93.60
23715;DHT22;12036;50.858;4.472;2024-03-07T16:05:18;11.30;94.20
23715;DHT22;12036;50.858;4.472;2024-03-07T16:07:44;11.30;94.40
23715;DHT22;12036;50.858;4.472;2024-03-07T16:10:11;11.20;94.20
23715;DHT22;12036;50.858;4.472;2024-03-07T16:12:38;11.20;94.20
23715;DHT22;12036;50.858;4.472;2024-03-07T16:15:07;11.10;94.40
23715;DHT22;12036;50.858;4.472;2024-03-07T16:17:36;11.10;94.60
23715;DHT22;12036;50.858;4.472;2024-03-07T16:20:03;11.30;94.30
23715;DHT22;12036;50.858;4.472;2024-03-07T16:22:30;11.20;94.30